createdAt,value
2018-02-05T00:01:47.268Z,15.00
2018-02-05T00:04:14.477Z,13.00
2018-02-05T00:06:41.318Z,11.07
2018-02-05T00:09:07.561Z,11.85
2018-02-05T00:11:33.778Z,11.18
2018-02-05T00:14:00.027Z,11.50
2018-02-05T00:16:26.863Z,11.68
2018-02-05T00:18:54.081Z,10.35
2018-02-05T00:21:20.272Z,10.18
2018-02-05T00:23:46.477Z,11.52
2018-02-05T00:26:13.824Z,11.40
2018-02-05T00:28:41.871Z,11.65
2018-02-05T00:31:08.100Z,11.18
2018-02-05T00:33:34.694Z,11.15
2018-02-05T00:36:01.967Z,11.75
2018-02-05T00:38:29.331Z,10.98
2018-02-05T00:40:56.351Z,10.80
2018-02-05T00:43:22.957Z,9.07
2018-02-05T00:45:50.164Z,11.98
2018-02-05T00:48:17.246Z,10.80
2018-02-05T00:50:43.490Z,9.57
2018-02-05T00:53:09.706Z,11.18
2018-02-05T00:55:36.557Z,8.75
2018-02-05T00:58:03.756Z,10.20
2018-02-05T01:00:30.754Z,11.02
2018-02-05T01:02:57.883Z,12.85
2018-02-05T01:05:24.823Z,15.07
2018-02-05T01:07:53.078Z,13.77
2018-02-05T01:10:19.775Z,12.23
2018-02-05T01:12:46.622Z,12.40
2018-02-05T01:15:14.076Z,11.73
2018-02-05T01:17:41.058Z,12.20
2018-02-05T01:20:08.329Z,12.55
2018-02-05T01:22:34.547Z,13.82
2018-02-05T01:25:02.056Z,14.00
2018-02-05T01:27:28.315Z,12.45
2018-02-05T01:29:55.253Z,11.35
2018-02-05T01:32:22.760Z,11.43
2018-02-05T01:34:49.509Z,10.60
2018-02-05T01:37:15.857Z,9.32
2018-02-05T01:39:42.119Z,11.18
2018-02-05T01:42:09.904Z,9.70
2018-02-05T01:44:37.483Z,7.85
2018-02-05T01:47:05.074Z,9.13
2018-02-05T01:49:32.135Z,9.05
2018-02-05T01:51:59.719Z,8.05
2018-02-05T01:54:26.964Z,8.32
2018-02-05T01:56:53.728Z,7.97
2018-02-05T01:59:20.969Z,8.02
2018-02-05T02:01:47.262Z,8.95
2018-02-05T02:04:13.492Z,8.02
2018-02-05T02:06:39.949Z,9.48
2018-02-05T02:09:06.664Z,8.75
2018-02-05T02:11:33.882Z,9.27
2018-02-05T02:14:01.442Z,9.40
2018-02-05T02:16:27.909Z,9.95
2018-02-05T02:18:54.893Z,10.65
2018-02-05T02:21:21.194Z,11.55
2018-02-05T02:23:48.394Z,12.60
2018-02-05T02:26:15.414Z,15.20
2018-02-05T02:28:42.180Z,13.13
2018-02-05T02:31:10.512Z,12.80
2018-02-05T02:33:37.503Z,11.88
2018-02-05T02:36:04.388Z,12.18
2018-02-05T02:38:31.341Z,12.05
2018-02-05T02:40:58.420Z,9.50
2018-02-05T02:43:24.618Z,10.50
2018-02-05T02:45:52.589Z,10.07
2018-02-05T02:48:19.545Z,10.52
2018-02-05T02:50:45.794Z,9.98
2018-02-05T02:53:11.990Z,9.45
2018-02-05T02:55:39.260Z,8.52
2018-02-05T02:58:06.291Z,8.68
2018-02-05T03:00:33.263Z,7.35
2018-02-05T03:02:59.470Z,8.13
2018-02-05T03:05:25.754Z,8.25
2018-02-05T03:07:51.990Z,8.30
2018-02-05T03:10:18.254Z,8.57
2018-02-05T03:12:45.440Z,11.12
2018-02-05T03:15:12.448Z,8.13
2018-02-05T03:17:39.551Z,9.10
2018-02-05T03:20:05.758Z,10.63
2018-02-05T03:22:32.524Z,9.57
2018-02-05T03:24:59.517Z,10.57
2018-02-05T03:27:26.425Z,11.07
2018-02-05T03:29:52.642Z,10.30
2018-02-05T03:32:18.881Z,8.55
2018-02-05T03:34:46.051Z,9.95
2018-02-05T03:37:13.568Z,9.90
2018-02-05T03:39:41.346Z,9.65
2018-02-05T03:42:08.575Z,9.98
2018-02-05T03:44:36.114Z,11.65
2018-02-05T03:47:03.211Z,11.40
2018-02-05T03:49:29.410Z,12.32
2018-02-05T03:51:56.231Z,12.37
2018-02-05T03:54:22.779Z,13.25
2018-02-05T03:56:50.452Z,11.77
2018-02-05T03:59:16.894Z,12.50
2018-02-05T04:01:43.736Z,12.13
2018-02-05T04:04:10.145Z,11.63
2018-02-05T04:06:43.243Z,13.93
2018-02-05T04:09:09.823Z,13.10
2018-02-05T04:11:36.881Z,10.93
2018-02-05T04:14:04.398Z,11.93
2018-02-05T04:16:30.586Z,10.68
2018-02-05T04:18:57.759Z,12.93
2018-02-05T04:21:24.571Z,11.70
2018-02-05T04:23:51.363Z,10.70
2018-02-05T04:26:18.003Z,11.38
2018-02-05T04:28:45.383Z,11.38
2018-02-05T04:31:12.342Z,10.25
2018-02-05T04:33:38.716Z,10.35
2018-02-05T04:36:06.599Z,10.30
2018-02-05T04:38:33.393Z,9.35
2018-02-05T04:41:00.467Z,9.35
2018-02-05T04:43:26.638Z,8.23
2018-02-05T04:45:53.577Z,9.80
2018-02-05T04:48:20.679Z,10.57
2018-02-05T04:50:46.878Z,8.48
2018-02-05T04:53:14.447Z,10.73
2018-02-05T04:55:40.834Z,9.88
2018-02-05T04:58:07.624Z,10.85
2018-02-05T05:00:33.815Z,10.18
2018-02-05T05:03:00.777Z,11.45
2018-02-05T05:05:27.648Z,10.35
2018-02-05T05:07:54.465Z,9.82
2018-02-05T05:10:20.909Z,10.75
2018-02-05T05:12:47.167Z,10.20
2018-02-05T05:15:13.375Z,10.85
2018-02-05T05:17:40.388Z,8.15
2018-02-05T05:20:07.488Z,9.55
2018-02-05T05:22:33.744Z,11.63
2018-02-05T05:25:00.200Z,11.95
2018-02-05T05:27:27.781Z,12.70
2018-02-05T05:29:53.994Z,11.25
2018-02-05T05:32:20.190Z,10.95
2018-02-05T05:34:46.561Z,11.95
2018-02-05T05:37:13.068Z,13.07
2018-02-05T05:39:40.037Z,10.25
2018-02-05T05:42:06.306Z,12.52
2018-02-05T05:44:33.526Z,12.82
2018-02-05T05:46:59.747Z,11.95
2018-02-05T05:49:26.623Z,10.35
2018-02-05T05:51:53.019Z,11.45
2018-02-05T05:54:20.190Z,9.95
2018-02-05T05:56:46.378Z,10.73
2018-02-05T05:59:13.408Z,12.85
2018-02-05T06:01:40.185Z,11.32
2018-02-05T06:04:06.867Z,12.40
2018-02-05T06:06:34.346Z,13.90
2018-02-05T06:09:01.377Z,12.15
2018-02-05T06:11:27.590Z,12.55
2018-02-05T06:13:54.034Z,13.93
2018-02-05T06:16:20.290Z,14.60
2018-02-05T06:18:47.884Z,13.55
2018-02-05T06:21:14.580Z,17.33
2018-02-05T06:23:41.614Z,16.65
2018-02-05T06:26:08.389Z,17.92
2018-02-05T06:28:35.326Z,17.90
2018-02-05T06:31:02.837Z,15.45
2018-02-05T06:33:29.050Z,14.63
2018-02-05T06:35:55.281Z,14.15
2018-02-05T06:38:21.469Z,14.43
2018-02-05T06:40:48.431Z,17.05
2018-02-05T06:43:15.796Z,13.20
2018-02-05T06:45:43.288Z,13.45
2018-02-05T06:48:09.866Z,11.20
2018-02-05T06:50:49.057Z,15.10
2018-02-05T06:53:28.462Z,15.45
2018-02-05T06:56:07.016Z,14.20
2018-02-05T06:58:34.020Z,14.20
2018-02-05T07:01:00.239Z,14.40
2018-02-05T07:03:27.084Z,16.20
2018-02-05T07:05:53.330Z,14.35
2018-02-05T07:08:19.722Z,17.23
2018-02-05T07:10:47.008Z,17.15
2018-02-05T07:13:14.173Z,14.40
2018-02-05T07:15:41.919Z,15.00
2018-02-05T07:18:08.830Z,16.70
2018-02-05T07:20:36.039Z,17.90
2018-02-05T07:23:02.501Z,17.98
2018-02-05T07:25:30.154Z,16.00
2018-02-05T07:27:56.765Z,15.80
2018-02-05T07:30:23.811Z,14.40
2018-02-05T07:32:50.820Z,13.30
2018-02-05T07:35:17.072Z,17.00
2018-02-05T07:37:43.939Z,15.98
2018-02-05T07:40:12.162Z,15.35
2018-02-05T07:42:38.841Z,16.77
2018-02-05T07:45:06.312Z,15.18
2018-02-05T07:47:34.063Z,17.83
2018-02-05T07:50:01.542Z,16.62
2018-02-05T07:52:29.138Z,19.92
2018-02-05T07:54:56.007Z,21.37
2018-02-05T07:57:22.823Z,17.75
2018-02-05T07:59:49.045Z,16.15
2018-02-05T08:02:15.290Z,17.17
2018-02-05T08:04:41.942Z,16.08
2018-02-05T08:07:08.993Z,14.48
2018-02-05T08:09:35.884Z,16.02
2018-02-05T08:12:02.879Z,16.55
2018-02-05T08:14:29.114Z,14.23
2018-02-05T08:16:55.943Z,14.10
2018-02-05T08:19:23.220Z,12.60
2018-02-05T08:21:49.832Z,14.35
2018-02-05T08:24:16.501Z,16.75
2018-02-05T08:26:44.058Z,14.75
2018-02-05T08:29:10.244Z,14.73
2018-02-05T08:31:36.959Z,12.75
2018-02-05T08:34:04.459Z,13.13
2018-02-05T08:36:30.860Z,13.65
2018-02-05T08:38:58.859Z,13.35
2018-02-05T08:41:25.584Z,11.80
2018-02-05T08:43:52.356Z,12.90
2018-02-05T08:46:19.912Z,11.68
2018-02-05T08:48:46.358Z,12.55
2018-02-05T08:51:13.326Z,13.07
2018-02-05T08:53:40.309Z,13.75
2018-02-05T08:56:06.528Z,14.10
2018-02-05T08:58:33.015Z,13.98
2018-02-05T09:00:59.844Z,13.27
2018-02-05T09:03:26.070Z,14.10
2018-02-05T09:05:52.922Z,13.38
2018-02-05T09:08:19.640Z,12.40
2018-02-05T09:10:46.322Z,12.27
2018-02-05T09:13:13.266Z,14.50
2018-02-05T09:15:40.840Z,14.25
2018-02-05T09:18:08.307Z,12.20
2018-02-05T09:20:34.966Z,10.80
2018-02-05T09:23:01.175Z,10.95
2018-02-05T09:25:27.398Z,12.27
2018-02-05T09:27:54.283Z,10.20
2018-02-05T09:30:20.889Z,11.40
2018-02-05T09:32:47.935Z,11.10
2018-02-05T09:35:14.499Z,11.43
2018-02-05T09:37:41.515Z,11.77
2018-02-05T09:40:07.749Z,10.18
2018-02-05T09:42:33.986Z,10.48
2018-02-05T09:45:01.173Z,10.20
2018-02-05T09:47:27.405Z,10.15
2018-02-05T09:49:54.304Z,10.07
2018-02-05T09:52:21.480Z,10.25
2018-02-05T09:54:47.690Z,9.25
2018-02-05T09:57:14.563Z,8.80
2018-02-05T09:59:40.802Z,9.98
2018-02-05T10:02:08.350Z,10.10
2018-02-05T10:04:35.133Z,9.57
2018-02-05T10:07:01.366Z,9.30
2018-02-05T10:09:27.806Z,10.00
2018-02-05T10:11:54.741Z,9.70
2018-02-05T10:14:21.106Z,9.48
2018-02-05T10:16:48.120Z,10.10
2018-02-05T10:19:14.465Z,9.50
2018-02-05T10:21:41.225Z,9.00
2018-02-05T10:24:07.795Z,8.40
2018-02-05T10:26:35.284Z,9.13
2018-02-05T10:29:01.502Z,9.20
2018-02-05T10:31:28.447Z,8.77
2018-02-05T10:33:54.793Z,8.68
2018-02-05T10:36:22.278Z,8.88
2018-02-05T10:38:49.072Z,8.25
2018-02-05T10:41:16.007Z,6.70
2018-02-05T10:43:43.008Z,6.00
2018-02-05T10:46:09.288Z,5.93
2018-02-05T10:48:36.258Z,6.43
2018-02-05T10:51:02.624Z,5.95
2018-02-05T10:53:29.566Z,5.62
2018-02-05T10:55:55.951Z,5.97
2018-02-05T10:58:23.165Z,6.20
2018-02-05T11:00:49.401Z,6.05
2018-02-05T11:03:16.892Z,5.90
2018-02-05T11:05:43.112Z,6.05
2018-02-05T11:08:09.616Z,5.93
2018-02-05T11:10:35.937Z,6.53
2018-02-05T11:13:02.151Z,6.47
2018-02-05T11:15:28.428Z,5.45
2018-02-05T11:17:56.449Z,6.28
2018-02-05T11:20:23.592Z,7.03
2018-02-05T11:22:51.433Z,5.85
2018-02-05T11:25:18.299Z,6.20
2018-02-05T11:27:44.966Z,5.40
2018-02-05T11:30:11.561Z,5.22
2018-02-05T11:32:38.599Z,5.95
2018-02-05T11:37:38.589Z,6.00
2018-02-05T11:40:06.152Z,6.10
2018-02-05T11:42:33.827Z,6.55
2018-02-05T11:45:01.328Z,5.80
2018-02-05T11:47:28.539Z,5.82
2018-02-05T11:49:54.757Z,5.93
2018-02-05T11:52:21.704Z,5.70
2018-02-05T11:54:48.769Z,6.37
2018-02-05T11:57:15.599Z,5.37
2018-02-05T11:59:43.110Z,5.97
2018-02-05T12:02:09.310Z,5.93
2018-02-05T12:04:35.740Z,6.95
2018-02-05T12:07:02.836Z,6.22
2018-02-05T12:09:29.724Z,5.80
2018-02-05T12:11:56.168Z,6.50
2018-02-05T12:14:23.481Z,6.22
2018-02-05T12:16:50.453Z,6.62
2018-02-05T12:19:16.687Z,6.47
2018-02-05T12:21:42.919Z,6.00
2018-02-05T12:24:10.129Z,6.22
2018-02-05T12:26:38.067Z,6.03
2018-02-05T12:29:05.354Z,6.97
2018-02-05T12:31:32.508Z,6.75
2018-02-05T12:33:59.942Z,5.85
2018-02-05T12:36:26.910Z,5.93
2018-02-05T12:38:54.014Z,6.47
2018-02-05T12:41:21.018Z,6.25
2018-02-05T12:43:47.343Z,7.90
2018-02-05T12:46:14.162Z,7.18
2018-02-05T12:48:41.248Z,7.37
2018-02-05T12:51:08.570Z,6.55
2018-02-05T12:53:35.668Z,6.18
2018-02-05T12:56:01.890Z,5.82
2018-02-05T12:58:38.967Z,5.78
2018-02-05T13:01:15.634Z,6.85
2018-02-05T13:06:47.049Z,7.00
2018-02-05T13:09:13.699Z,7.30
2018-02-05T13:11:41.486Z,7.78
2018-02-05T13:14:07.792Z,7.03
2018-02-05T13:16:35.618Z,7.37
2018-02-05T13:19:02.801Z,7.82
2018-02-05T13:21:29.352Z,7.57
2018-02-05T13:23:57.312Z,7.60
2018-02-05T13:26:24.860Z,7.82
2018-02-05T13:28:51.314Z,7.37
2018-02-05T13:31:18.317Z,8.05
2018-02-05T13:33:44.928Z,7.80
2018-02-05T13:36:11.118Z,7.28
2018-02-05T13:38:39.120Z,7.45
2018-02-05T13:41:05.304Z,7.37
2018-02-05T13:43:31.504Z,8.32
2018-02-05T13:45:57.706Z,7.72
2018-02-05T13:48:24.147Z,7.03
2018-02-05T13:50:51.782Z,7.57
2018-02-05T13:53:19.395Z,7.93
2018-02-05T13:55:45.657Z,7.15
2018-02-05T13:58:12.715Z,7.95
2018-02-05T14:00:40.203Z,7.55
2018-02-05T14:03:07.210Z,7.97
2018-02-05T14:05:37.456Z,9.20
2018-02-05T14:08:04.473Z,8.77
2018-02-05T14:10:31.412Z,8.48
2018-02-05T14:12:57.939Z,8.05
2018-02-05T14:15:26.751Z,7.25
2018-02-05T14:17:53.717Z,8.43
2018-02-05T14:20:20.619Z,8.75
2018-02-05T14:22:47.351Z,8.13
2018-02-05T14:25:14.117Z,9.05
2018-02-05T14:27:41.858Z,8.20
2018-02-05T14:30:08.050Z,8.27
2018-02-05T14:32:34.850Z,8.18
2018-02-05T14:35:01.798Z,8.23
2018-02-05T14:37:29.279Z,9.02
2018-02-05T14:39:55.995Z,8.38
2018-02-05T14:42:22.973Z,9.20
2018-02-05T14:44:50.703Z,9.10
2018-02-05T14:47:17.854Z,8.55
2018-02-05T14:49:45.010Z,9.45
2018-02-05T14:52:11.464Z,8.10
2018-02-05T14:54:39.122Z,7.30
2018-02-05T14:57:05.407Z,8.77
2018-02-05T14:59:32.956Z,7.75
2018-02-05T15:01:59.180Z,8.77
2018-02-05T15:04:26.040Z,8.00
2018-02-05T15:06:53.582Z,8.82
2018-02-05T15:09:20.333Z,7.65
2018-02-05T15:11:46.540Z,7.30
2018-02-05T15:14:12.815Z,7.70
2018-02-05T15:16:39.018Z,7.53
2018-02-05T15:19:05.254Z,7.97
2018-02-05T15:21:32.165Z,8.20
2018-02-05T15:23:59.399Z,6.87
2018-02-05T15:26:27.392Z,7.50
2018-02-05T15:28:53.606Z,7.18
2018-02-05T15:31:20.522Z,8.90
2018-02-05T15:33:47.367Z,8.27
2018-02-05T15:36:14.987Z,8.40
2018-02-05T15:38:42.691Z,9.02
2018-02-05T15:41:09.441Z,9.05
2018-02-05T15:43:36.211Z,8.05
2018-02-05T15:46:02.908Z,7.35
2018-02-05T15:48:29.364Z,8.13
2018-02-05T15:50:55.562Z,7.62
2018-02-05T15:53:22.353Z,8.80
2018-02-05T15:55:48.861Z,7.93
2018-02-05T15:58:15.481Z,8.27
2018-02-05T16:00:42.286Z,7.78
2018-02-05T16:03:09.673Z,7.70
2018-02-05T16:05:37.237Z,9.48
2018-02-05T16:08:04.743Z,7.85
2018-02-05T16:10:31.872Z,8.48
2018-02-05T16:12:59.437Z,8.95
2018-02-05T16:15:26.180Z,8.40
2018-02-05T16:17:52.593Z,8.02
2018-02-05T16:20:19.464Z,8.18
2018-02-05T16:22:45.800Z,8.73
2018-02-05T16:25:11.969Z,8.50
2018-02-05T16:27:38.768Z,11.05
2018-02-05T16:30:05.858Z,10.60
2018-02-05T16:32:32.984Z,9.00
2018-02-05T16:35:00.126Z,11.07
2018-02-05T16:37:26.851Z,9.98
2018-02-05T16:39:53.275Z,9.23
2018-02-05T16:42:20.843Z,11.30
2018-02-05T16:44:47.045Z,10.73
2018-02-05T16:47:13.236Z,9.75
2018-02-05T16:49:39.818Z,10.20
2018-02-05T16:52:06.023Z,9.98
2018-02-05T16:54:32.792Z,10.88
2018-02-05T16:56:59.746Z,12.43
2018-02-05T16:59:26.584Z,10.10
2018-02-05T17:01:53.975Z,10.18
2018-02-05T17:04:20.190Z,11.60
2018-02-05T17:06:48.227Z,12.50
2018-02-05T17:09:14.857Z,11.07
2018-02-05T17:11:42.369Z,11.40
2018-02-05T17:14:09.561Z,11.23
2018-02-05T17:16:35.743Z,11.52
2018-02-05T17:19:01.950Z,11.00
2018-02-05T17:21:29.528Z,10.85
2018-02-05T17:23:56.698Z,10.57
2018-02-05T17:26:23.713Z,10.88
2018-02-05T17:28:50.856Z,10.30
2018-02-05T17:31:17.816Z,10.07
2018-02-05T17:33:44.405Z,11.68
2018-02-05T17:36:11.452Z,11.65
2018-02-05T17:38:37.863Z,11.20
2018-02-05T17:41:05.369Z,11.20
2018-02-05T17:43:32.885Z,10.98
2018-02-05T17:45:59.382Z,11.07
2018-02-05T17:48:26.544Z,9.07
2018-02-05T17:50:53.571Z,11.18
2018-02-05T17:55:54.219Z,9.15
2018-02-05T17:58:22.548Z,10.98
2018-02-05T18:00:49.993Z,10.85
2018-02-05T18:03:17.035Z,10.95
2018-02-05T18:05:43.990Z,9.80
2018-02-05T18:08:10.985Z,11.25
2018-02-05T18:10:38.151Z,11.10
2018-02-05T18:13:04.376Z,10.77
2018-02-05T18:15:30.803Z,10.48
2018-02-05T18:17:57.031Z,9.23
2018-02-05T18:20:24.433Z,10.02
2018-02-05T18:22:51.160Z,8.40
2018-02-05T18:25:18.244Z,9.15
2018-02-05T18:27:44.727Z,9.38
2018-02-05T18:30:10.995Z,8.35
2018-02-05T18:32:38.029Z,9.20
2018-02-05T18:35:05.254Z,8.98
2018-02-05T18:37:32.032Z,10.10
2018-02-05T18:39:58.836Z,8.80
2018-02-05T18:42:25.026Z,9.70
2018-02-05T18:44:52.674Z,9.13
2018-02-05T18:47:18.863Z,8.50
2018-02-05T18:49:45.792Z,9.38
2018-02-05T18:52:12.026Z,10.00
2018-02-05T18:54:38.214Z,8.55
2018-02-05T18:57:05.218Z,8.80
2018-02-05T18:59:32.042Z,9.05
2018-02-05T19:02:11.522Z,8.70
2018-02-05T19:04:38.517Z,9.10
2018-02-05T19:07:05.034Z,9.60
2018-02-05T19:09:31.972Z,8.77
2018-02-05T19:11:59.605Z,8.73
2018-02-05T19:14:25.830Z,8.38
2018-02-05T19:16:52.056Z,8.60
2018-02-05T19:19:18.963Z,9.38
2018-02-05T19:21:45.265Z,9.40
2018-02-05T19:24:12.213Z,8.18
2018-02-05T19:26:39.768Z,9.52
2018-02-05T19:29:08.035Z,8.70
2018-02-05T19:31:37.076Z,8.93
2018-02-05T19:34:03.742Z,9.25
2018-02-05T19:36:30.743Z,8.10
2018-02-05T19:38:57.359Z,9.88
2018-02-05T19:41:24.394Z,9.30
2018-02-05T19:43:52.084Z,8.82
2018-02-05T19:46:19.486Z,9.95
2018-02-05T19:48:46.615Z,8.73
2018-02-05T19:51:12.841Z,9.80
2018-02-05T19:53:40.453Z,9.07
2018-02-05T19:56:08.850Z,9.15
2018-02-05T19:58:35.046Z,9.20
2018-02-05T20:01:01.276Z,9.45
2018-02-05T20:03:28.896Z,9.52
2018-02-05T20:05:55.103Z,9.27
2018-02-05T20:08:21.416Z,9.55
2018-02-05T20:10:48.363Z,10.63
2018-02-05T20:13:14.916Z,9.05
2018-02-05T20:15:42.166Z,9.85
2018-02-05T20:18:08.738Z,9.73
2018-02-05T20:20:36.257Z,10.98
2018-02-05T20:23:02.817Z,9.63
2018-02-05T20:25:30.362Z,9.55
2018-02-05T20:27:58.044Z,9.90
2018-02-05T20:30:24.720Z,9.50
2018-02-05T20:32:53.320Z,10.57
2018-02-05T20:35:20.510Z,9.90
2018-02-05T20:37:48.161Z,11.20
2018-02-05T20:40:15.205Z,10.65
2018-02-05T20:42:41.590Z,10.90
2018-02-05T20:45:09.793Z,10.77
2018-02-05T20:47:37.874Z,10.63
2018-02-05T20:50:04.065Z,10.10
2018-02-05T20:52:31.172Z,10.18
2018-02-05T20:54:58.165Z,11.10
2018-02-05T20:57:25.519Z,12.18
2018-02-05T20:59:52.586Z,11.70
2018-02-05T21:02:19.193Z,11.95
2018-02-05T21:04:46.133Z,11.00
2018-02-05T21:07:12.357Z,12.32
2018-02-05T21:09:39.226Z,11.85
2018-02-05T21:12:06.439Z,11.57
2018-02-05T21:14:33.540Z,11.18
2018-02-05T21:17:02.025Z,10.70
2018-02-05T21:19:28.262Z,11.18
2018-02-05T21:21:55.158Z,11.82
2018-02-05T21:24:21.791Z,12.63
2018-02-05T21:26:48.592Z,11.25
2018-02-05T21:29:15.384Z,12.40
2018-02-05T21:31:42.356Z,12.40
2018-02-05T21:34:08.791Z,11.18
2018-02-05T21:36:36.762Z,11.77
2018-02-05T21:39:03.142Z,11.18
2018-02-05T21:41:29.358Z,11.15
2018-02-05T21:43:55.649Z,11.15
2018-02-05T21:46:22.533Z,10.65
2018-02-05T21:48:48.907Z,10.95
2018-02-05T21:51:16.612Z,10.55
2018-02-05T21:53:43.404Z,11.63
2018-02-05T21:56:10.448Z,10.70
2018-02-05T21:58:37.421Z,12.15
2018-02-05T22:01:03.650Z,11.23
2018-02-05T22:03:30.246Z,10.15
2018-02-05T22:05:57.227Z,10.63
2018-02-05T22:08:24.055Z,10.98
2018-02-05T22:10:50.286Z,10.00
2018-02-05T22:13:17.473Z,11.60
2018-02-05T22:15:43.645Z,10.18
2018-02-05T22:18:10.584Z,10.07
2018-02-05T22:20:37.257Z,11.20
2018-02-05T22:23:03.557Z,11.02
2018-02-05T22:25:30.600Z,10.60
2018-02-05T22:27:57.466Z,10.48
2018-02-05T22:30:23.703Z,10.50
2018-02-05T22:32:50.450Z,12.45
2018-02-05T22:35:16.678Z,11.15
2018-02-05T22:37:42.892Z,10.35
2018-02-05T22:40:09.092Z,11.10
2018-02-05T22:42:36.274Z,12.73
2018-02-05T22:45:03.921Z,12.75
2018-02-05T22:47:31.163Z,13.80
2018-02-05T22:49:59.441Z,11.93
2018-02-05T22:52:26.986Z,11.52
2018-02-05T22:54:54.252Z,11.05
2018-02-05T22:57:20.750Z,12.10
2018-02-05T22:59:46.936Z,11.40
2018-02-05T23:02:13.679Z,10.73
2018-02-05T23:04:40.265Z,12.27
2018-02-05T23:07:07.518Z,10.48
2018-02-05T23:09:34.802Z,11.75
2018-02-05T23:12:01.772Z,11.90
2018-02-05T23:14:28.614Z,11.70
2018-02-05T23:16:54.993Z,10.60
2018-02-05T23:19:22.921Z,11.00
2018-02-05T23:21:49.190Z,10.30
2018-02-05T23:24:15.953Z,12.73
2018-02-05T23:26:43.419Z,11.30
2018-02-05T23:29:09.938Z,10.05
2018-02-05T23:31:37.902Z,10.43
2018-02-05T23:34:04.861Z,10.10
2018-02-05T23:36:31.811Z,9.85
2018-02-05T23:38:58.709Z,9.73
2018-02-05T23:41:25.651Z,10.57
2018-02-05T23:43:52.183Z,10.07
2018-02-05T23:46:19.384Z,11.35
2018-02-05T23:48:46.408Z,10.10
2018-02-05T23:51:13.715Z,8.48
2018-02-05T23:53:41.856Z,9.15
2018-02-05T23:56:09.324Z,9.05
2018-02-05T23:58:35.521Z,9.57
